createdAt,value
2018-11-28T00:00:37.377Z,36.00
2018-11-28T00:02:41.110Z,37.50
2018-11-28T00:04:44.920Z,37.77
2018-11-28T00:06:48.661Z,36.10
2018-11-28T00:08:53.147Z,41.00
2018-11-28T00:10:56.864Z,40.97
2018-11-28T00:13:01.585Z,40.80
2018-11-28T00:15:06.010Z,33.90
2018-11-28T00:17:09.841Z,37.73
2018-11-28T00:19:13.601Z,44.33
2018-11-28T00:21:17.393Z,39.80
2018-11-28T00:23:21.209Z,37.00
2018-11-28T00:25:25.000Z,40.43
2018-11-28T00:27:28.765Z,39.70
2018-11-28T00:29:32.557Z,38.83
2018-11-28T00:31:36.291Z,41.00
2018-11-28T00:33:40.103Z,37.10
2018-11-28T00:35:43.855Z,39.50
2018-11-28T00:37:47.659Z,32.83
2018-11-28T00:39:51.442Z,47.13
2018-11-28T00:41:55.205Z,34.90
2018-11-28T00:43:59.002Z,42.30
2018-11-28T00:46:02.727Z,40.80
2018-11-28T00:48:06.855Z,39.27
2018-11-28T00:50:12.823Z,42.10
2018-11-28T00:52:16.569Z,36.03
2018-11-28T00:54:21.264Z,38.50
2018-11-28T00:56:25.073Z,45.50
2018-11-28T00:58:28.877Z,42.80
2018-11-28T01:00:32.684Z,39.93
2018-11-28T01:02:36.559Z,43.90
2018-11-28T01:04:40.323Z,42.40
2018-11-28T01:06:44.092Z,41.43
2018-11-28T01:08:47.791Z,35.47
2018-11-28T01:10:51.654Z,40.43
2018-11-28T01:12:55.524Z,35.37
2018-11-28T01:14:59.291Z,41.10
2018-11-28T01:17:03.056Z,36.07
2018-11-28T01:19:06.804Z,33.77
2018-11-28T01:21:10.612Z,35.80
2018-11-28T01:23:14.366Z,41.37
2018-11-28T01:25:19.021Z,31.70
2018-11-28T01:27:22.827Z,37.87
2018-11-28T01:29:26.583Z,40.60
2018-11-28T01:31:30.354Z,41.23
2018-11-28T01:33:34.095Z,37.67
2018-11-28T01:35:38.645Z,40.77
2018-11-28T01:37:42.537Z,40.13
2018-11-28T01:39:46.265Z,39.27
2018-11-28T01:41:50.486Z,41.53
2018-11-28T01:43:54.212Z,45.60
2018-11-28T01:45:58.044Z,36.37
2018-11-28T01:48:01.834Z,41.73
2018-11-28T01:50:07.607Z,42.47
2018-11-28T01:52:11.380Z,37.37
2018-11-28T01:54:15.118Z,36.73
2018-11-28T01:56:18.848Z,38.17
2018-11-28T01:58:22.559Z,33.53
2018-11-28T02:00:27.122Z,37.20
2018-11-28T02:02:30.878Z,37.47
2018-11-28T02:04:40.967Z,48.20
2018-11-28T02:06:44.807Z,43.77
2018-11-28T02:08:48.525Z,49.50
2018-11-28T02:10:52.569Z,47.30
2018-11-28T02:12:56.308Z,55.23
2018-11-28T02:15:00.021Z,45.33
2018-11-28T02:17:03.871Z,41.57
2018-11-28T02:19:07.628Z,43.23
2018-11-28T02:21:11.374Z,41.20
2018-11-28T02:23:15.135Z,41.43
2018-11-28T02:25:18.982Z,38.77
2018-11-28T02:27:22.750Z,35.70
2018-11-28T02:29:26.507Z,37.17
2018-11-28T02:31:30.346Z,38.97
2018-11-28T02:33:34.122Z,41.00
2018-11-28T02:35:37.878Z,39.37
2018-11-28T02:37:41.752Z,33.37
2018-11-28T02:39:45.500Z,40.17
2018-11-28T02:41:49.294Z,35.90
2018-11-28T02:43:53.083Z,39.57
2018-11-28T02:46:08.126Z,36.83
2018-11-28T02:48:11.968Z,39.27
2018-11-28T02:50:15.806Z,41.20
2018-11-28T02:52:19.580Z,36.60
2018-11-28T02:54:23.355Z,40.13
2018-11-28T02:56:27.172Z,42.97
2018-11-28T02:58:31.014Z,38.43
2018-11-28T03:00:34.856Z,33.30
2018-11-28T03:02:38.631Z,37.97
2018-11-28T03:04:42.420Z,39.27
2018-11-28T03:06:46.189Z,34.17
2018-11-28T03:08:49.978Z,36.33
2018-11-28T03:10:53.742Z,39.80
2018-11-28T03:12:57.497Z,35.97
2018-11-28T03:15:01.271Z,36.83
2018-11-28T03:17:05.126Z,34.47
2018-11-28T03:19:08.925Z,36.23
2018-11-28T03:21:12.690Z,38.77
2018-11-28T03:23:16.517Z,36.67
2018-11-28T03:25:20.284Z,36.30
2018-11-28T03:27:24.060Z,33.83
2018-11-28T03:29:27.890Z,36.47
2018-11-28T03:31:31.682Z,43.67
2018-11-28T03:33:35.485Z,43.40
2018-11-28T03:35:39.252Z,40.63
2018-11-28T03:37:43.199Z,41.70
2018-11-28T03:39:47.001Z,34.67
2018-11-28T03:41:50.751Z,32.60
2018-11-28T03:43:54.525Z,37.23
2018-11-28T03:45:58.294Z,41.93
2018-11-28T03:48:02.109Z,34.47
2018-11-28T03:50:06.385Z,38.27
2018-11-28T03:52:10.168Z,37.03
2018-11-28T03:54:13.962Z,29.83
2018-11-28T03:56:17.697Z,36.20
2018-11-28T03:58:21.468Z,39.93
2018-11-28T04:00:25.294Z,39.07
2018-11-28T04:02:29.029Z,37.87
2018-11-28T04:04:32.772Z,51.00
2018-11-28T04:06:36.566Z,41.03
2018-11-28T04:08:40.360Z,40.93
2018-11-28T04:10:44.137Z,38.93
2018-11-28T04:12:47.964Z,45.57
2018-11-28T04:14:51.765Z,36.70
2018-11-28T04:16:55.558Z,37.07
2018-11-28T04:18:59.328Z,36.80
2018-11-28T04:21:03.145Z,40.97
2018-11-28T04:23:07.001Z,40.03
2018-11-28T04:25:11.675Z,39.10
2018-11-28T04:27:15.432Z,36.93
2018-11-28T04:29:19.186Z,37.97
2018-11-28T04:31:23.177Z,44.77
2018-11-28T04:33:26.981Z,42.93
2018-11-28T04:35:31.521Z,45.70
2018-11-28T04:37:35.315Z,43.17
2018-11-28T04:39:39.110Z,45.37
2018-11-28T04:41:42.886Z,46.47
2018-11-28T04:43:46.705Z,43.20
2018-11-28T04:45:50.481Z,37.60
2018-11-28T04:47:55.195Z,39.53
2018-11-28T04:49:58.963Z,42.97
2018-11-28T04:52:02.728Z,36.60
2018-11-28T04:54:06.906Z,44.33
2018-11-28T04:56:11.107Z,38.53
2018-11-28T04:58:14.966Z,49.97
2018-11-28T05:00:22.620Z,44.50
2018-11-28T05:02:26.391Z,35.80
2018-11-28T05:04:30.167Z,37.77
2018-11-28T05:07:40.805Z,42.80
2018-11-28T05:09:44.511Z,37.40
2018-11-28T05:11:48.345Z,44.73
2018-11-28T05:13:52.127Z,41.20
2018-11-28T05:15:56.025Z,39.50
2018-11-28T05:17:59.877Z,40.10
2018-11-28T05:20:04.043Z,36.47
2018-11-28T05:22:07.809Z,37.50
2018-11-28T05:24:11.644Z,41.03
2018-11-28T05:26:15.795Z,40.20
2018-11-28T05:28:24.322Z,41.47
2018-11-28T05:30:29.392Z,38.90
2018-11-28T05:32:33.195Z,37.23
2018-11-28T05:34:37.215Z,40.83
2018-11-28T05:36:41.215Z,43.00
2018-11-28T05:38:44.991Z,45.93
2018-11-28T05:40:48.887Z,40.27
2018-11-28T05:42:52.733Z,32.73
2018-11-28T05:44:56.955Z,35.97
2018-11-28T05:47:00.762Z,36.67
2018-11-28T05:49:04.647Z,37.77
2018-11-28T05:51:08.891Z,38.97
2018-11-28T05:53:12.622Z,39.83
2018-11-28T05:55:17.721Z,41.13
2018-11-28T05:57:21.556Z,37.27
2018-11-28T05:59:27.516Z,41.77
2018-11-28T06:01:30.322Z,34.27
2018-11-28T06:03:34.053Z,43.27
2018-11-28T06:05:37.909Z,39.10
2018-11-28T06:07:41.677Z,39.70
2018-11-28T06:09:45.981Z,38.20
2018-11-28T06:11:49.975Z,41.97
2018-11-28T06:13:54.358Z,38.47
2018-11-28T06:15:58.374Z,41.23
2018-11-28T06:18:02.149Z,43.30
2018-11-28T06:20:08.958Z,44.20
2018-11-28T06:22:12.754Z,39.57
2018-11-28T06:24:16.537Z,35.30
2018-11-28T06:26:20.293Z,37.60
2018-11-28T06:28:24.081Z,33.57
2018-11-28T06:30:27.856Z,46.30
2018-11-28T06:32:31.734Z,36.60
2018-11-28T06:34:35.506Z,38.13
2018-11-28T06:36:39.287Z,32.47
2018-11-28T06:38:43.123Z,41.80
2018-11-28T06:40:46.893Z,38.13
2018-11-28T06:42:50.768Z,41.00
2018-11-28T06:44:54.546Z,45.13
2018-11-28T06:46:58.632Z,35.23
2018-11-28T06:49:02.416Z,42.33
2018-11-28T06:51:06.477Z,36.30
2018-11-28T06:53:10.326Z,41.80
2018-11-28T06:55:15.210Z,41.70
2018-11-28T06:57:18.969Z,41.40
2018-11-28T06:59:24.458Z,40.37
2018-11-28T07:01:28.442Z,41.53
2018-11-28T07:03:32.236Z,36.90
2018-11-28T07:05:35.995Z,39.37
2018-11-28T07:07:39.833Z,46.27
2018-11-28T07:09:43.564Z,42.23
2018-11-28T07:11:47.337Z,38.30
2018-11-28T07:13:51.150Z,41.70
2018-11-28T07:15:54.945Z,39.57
2018-11-28T07:18:09.930Z,39.40
2018-11-28T07:20:16.328Z,34.33
2018-11-28T07:22:20.302Z,40.97
2018-11-28T07:24:24.154Z,44.87
2018-11-28T07:26:28.073Z,37.27
2018-11-28T07:28:31.832Z,35.70
2018-11-28T07:30:37.806Z,46.27
2018-11-28T07:32:40.377Z,38.97
2018-11-28T07:34:44.151Z,43.53
2018-11-28T07:36:47.943Z,37.10
2018-11-28T07:38:51.755Z,43.60
2018-11-28T07:40:55.871Z,46.60
2018-11-28T07:43:06.422Z,43.40
2018-11-28T07:45:11.832Z,42.10
2018-11-28T07:47:15.705Z,47.57
2018-11-28T07:49:19.477Z,30.63
2018-11-28T07:51:23.210Z,31.73
2018-11-28T07:53:27.087Z,30.40
2018-11-28T07:55:30.861Z,40.07
2018-11-28T07:57:34.743Z,38.77
2018-11-28T07:59:39.173Z,40.40
2018-11-28T08:01:52.497Z,36.13
2018-11-28T08:03:56.267Z,38.50
2018-11-28T08:06:00.153Z,37.27
2018-11-28T08:08:04.067Z,38.73
2018-11-28T08:10:18.683Z,42.23
2018-11-28T08:12:22.577Z,34.67
2018-11-28T08:14:26.556Z,32.73
2018-11-28T08:16:30.380Z,32.63
2018-11-28T08:18:36.043Z,31.47
2018-11-28T08:20:39.911Z,34.43
2018-11-28T08:22:43.841Z,36.20
2018-11-28T08:24:47.601Z,28.87
2018-11-28T08:26:51.370Z,32.87
2018-11-28T08:28:55.221Z,33.90
2018-11-28T08:30:59.057Z,35.77
2018-11-28T08:33:03.055Z,35.77
2018-11-28T08:35:06.990Z,36.47
2018-11-28T08:37:11.410Z,33.40
2018-11-28T08:39:15.207Z,31.93
2018-11-28T08:41:20.097Z,32.87
2018-11-28T08:43:24.091Z,31.73
2018-11-28T08:45:28.160Z,28.83
2018-11-28T08:47:32.861Z,32.10
2018-11-28T08:49:36.891Z,30.77
2018-11-28T08:51:40.997Z,28.43
2018-11-28T08:53:45.625Z,32.77
2018-11-28T08:55:49.729Z,34.47
2018-11-28T08:57:54.014Z,26.80
2018-11-28T08:59:58.127Z,28.70
2018-11-28T09:02:02.298Z,25.83
2018-11-28T09:04:06.656Z,32.60
2018-11-28T09:06:10.669Z,27.20
2018-11-28T09:08:14.875Z,24.23
2018-11-28T09:10:19.837Z,30.37
2018-11-28T09:12:23.916Z,31.77
2018-11-28T09:14:28.071Z,32.50
2018-11-28T09:16:32.212Z,22.90
2018-11-28T09:18:36.349Z,27.80
2018-11-28T09:20:40.378Z,26.30
2018-11-28T09:22:44.539Z,27.00
2018-11-28T09:24:48.812Z,27.87
2018-11-28T09:26:52.859Z,26.40
2018-11-28T09:28:56.987Z,24.70
2018-11-28T09:31:01.049Z,29.87
2018-11-28T09:33:05.614Z,26.47
2018-11-28T09:35:10.997Z,29.13
2018-11-28T09:37:15.951Z,28.00
2018-11-28T09:39:20.107Z,24.83
2018-11-28T09:41:24.175Z,29.87
2018-11-28T09:43:29.205Z,26.50
2018-11-28T09:45:33.179Z,26.07
2018-11-28T09:47:37.085Z,29.83
2018-11-28T09:49:41.010Z,23.30
2018-11-28T09:51:45.155Z,25.33
2018-11-28T09:53:48.977Z,28.37
2018-11-28T09:55:52.897Z,30.40
2018-11-28T09:57:57.459Z,29.33
2018-11-28T10:00:01.425Z,28.50
2018-11-28T10:02:05.287Z,25.83
2018-11-28T10:04:09.132Z,25.53
2018-11-28T10:06:12.939Z,31.30
2018-11-28T10:08:16.675Z,29.47
2018-11-28T10:10:20.492Z,29.33
2018-11-28T10:12:24.299Z,32.33
2018-11-28T10:14:28.116Z,27.73
2018-11-28T10:16:31.883Z,26.03
2018-11-28T10:18:35.925Z,28.87
2018-11-28T10:20:39.591Z,24.43
2018-11-28T10:22:43.589Z,25.77
2018-11-28T10:24:47.366Z,21.70
2018-11-28T10:26:51.157Z,26.43
2018-11-28T10:28:54.894Z,35.37
2018-11-28T10:30:58.702Z,31.50
2018-11-28T10:33:02.554Z,33.30
2018-11-28T10:35:06.837Z,24.23
2018-11-28T10:37:10.609Z,25.67
2018-11-28T10:39:14.439Z,26.90
2018-11-28T10:41:18.557Z,24.70
2018-11-28T10:43:22.280Z,24.20
2018-11-28T10:45:27.167Z,22.70
2018-11-28T10:47:30.838Z,24.90
2018-11-28T10:49:34.598Z,21.80
2018-11-28T10:51:38.445Z,25.03
2018-11-28T10:53:42.262Z,25.50
2018-11-28T10:55:46.183Z,24.47
2018-11-28T10:57:49.924Z,24.97
2018-11-28T10:59:53.681Z,28.53
2018-11-28T11:02:02.798Z,25.70
2018-11-28T11:04:11.704Z,21.77
2018-11-28T11:06:22.903Z,22.30
2018-11-28T11:08:33.428Z,26.33
2018-11-28T11:10:43.558Z,20.53
2018-11-28T11:12:51.623Z,22.00
2018-11-28T11:14:55.501Z,22.33
2018-11-28T11:16:59.294Z,19.80
2018-11-28T11:19:03.246Z,24.90
2018-11-28T11:21:07.175Z,23.33
2018-11-28T11:23:11.067Z,22.97
2018-11-28T11:25:14.880Z,23.00
2018-11-28T11:27:18.802Z,19.90
2018-11-28T11:29:22.704Z,24.27
2018-11-28T11:31:29.403Z,21.80
2018-11-28T11:33:33.399Z,23.03
2018-11-28T11:35:37.285Z,19.40
2018-11-28T11:37:41.545Z,17.17
2018-11-28T11:39:45.399Z,21.67
2018-11-28T11:41:49.324Z,18.63
2018-11-28T11:43:53.202Z,17.80
2018-11-28T11:45:57.072Z,17.17
2018-11-28T11:48:00.897Z,20.87
2018-11-28T11:50:06.557Z,23.43
2018-11-28T11:52:10.446Z,17.83
2018-11-28T11:54:14.303Z,18.70
2018-11-28T11:56:18.103Z,20.43
2018-11-28T11:58:21.947Z,13.67
2018-11-28T12:00:27.552Z,17.83
2018-11-28T12:02:31.363Z,19.43
2018-11-28T12:04:35.187Z,17.03
2018-11-28T12:06:39.042Z,22.07
2018-11-28T12:08:43.769Z,16.63
2018-11-28T12:10:47.622Z,18.03
2018-11-28T12:12:51.830Z,18.70
2018-11-28T12:14:55.385Z,20.37
2018-11-28T12:16:59.229Z,18.07
2018-11-28T12:19:03.099Z,18.90
2018-11-28T12:21:07.594Z,18.97
2018-11-28T12:23:11.506Z,21.60
2018-11-28T12:25:15.315Z,23.03
2018-11-28T12:27:19.205Z,20.80
2018-11-28T12:29:22.988Z,18.93
2018-11-28T12:31:26.724Z,17.73
2018-11-28T12:33:30.612Z,19.97
2018-11-28T12:35:34.510Z,15.70
2018-11-28T12:37:38.280Z,16.23
2018-11-28T12:39:42.142Z,18.37
2018-11-28T12:41:45.929Z,15.77
2018-11-28T12:43:49.736Z,18.57
2018-11-28T12:45:53.727Z,16.53
2018-11-28T12:47:57.760Z,18.93
2018-11-28T12:50:01.546Z,12.80
2018-11-28T12:52:05.413Z,16.90
2018-11-28T12:54:09.316Z,16.20
2018-11-28T12:56:13.095Z,19.20
2018-11-28T12:58:19.162Z,20.20
2018-11-28T13:00:25.334Z,20.87
2018-11-28T13:02:29.135Z,18.23
2018-11-28T13:04:32.896Z,14.63
2018-11-28T13:06:36.725Z,16.40
2018-11-28T13:08:40.549Z,17.13
2018-11-28T13:10:44.348Z,20.20
2018-11-28T13:12:49.171Z,12.30
2018-11-28T13:14:52.954Z,20.47
2018-11-28T13:16:56.732Z,17.03
2018-11-28T13:19:00.522Z,14.93
2018-11-28T13:21:04.318Z,19.20
2018-11-28T13:23:08.905Z,17.73
2018-11-28T13:25:15.505Z,16.97
2018-11-28T13:27:19.302Z,16.03
2018-11-28T13:29:24.021Z,16.50
2018-11-28T13:31:27.891Z,18.00
2018-11-28T13:33:31.809Z,18.43
2018-11-28T13:35:35.640Z,18.00
2018-11-28T13:37:39.951Z,15.07
2018-11-28T13:39:43.835Z,14.33
2018-11-28T13:41:51.543Z,13.90
2018-11-28T13:43:55.533Z,15.43
2018-11-28T13:45:59.286Z,12.93
2018-11-28T13:48:03.163Z,11.50
2018-11-28T13:50:09.118Z,11.30
2018-11-28T13:52:13.017Z,13.97
2018-11-28T13:54:21.398Z,15.33
2018-11-28T13:58:25.687Z,15.20
2018-11-28T14:00:29.795Z,17.57
2018-11-28T14:02:35.783Z,12.83
2018-11-28T14:04:39.731Z,14.17
2018-11-28T14:06:43.672Z,16.40
2018-11-28T14:08:48.010Z,19.00
2018-11-28T14:10:51.933Z,15.43
2018-11-28T14:12:55.773Z,15.00
2018-11-28T14:14:59.665Z,15.83
2018-11-28T14:17:03.822Z,16.60
2018-11-28T14:19:07.809Z,14.30
2018-11-28T14:21:13.478Z,15.53
2018-11-28T14:23:17.407Z,19.40
2018-11-28T14:25:21.353Z,13.97
2018-11-28T14:27:25.206Z,22.20
2018-11-28T14:29:29.098Z,17.80
2018-11-28T14:31:33.365Z,20.10
2018-11-28T14:33:37.310Z,24.87
2018-11-28T14:35:41.196Z,24.17
2018-11-28T14:37:45.318Z,28.60
2018-11-28T14:39:49.071Z,26.10
2018-11-28T14:41:53.041Z,23.90
2018-11-28T14:43:56.837Z,25.70
2018-11-28T14:46:00.658Z,22.80
2018-11-28T14:48:04.543Z,18.80
2018-11-28T14:50:15.739Z,18.47
2018-11-28T14:52:19.624Z,22.53
2018-11-28T14:54:23.534Z,15.40
2018-11-28T14:56:27.818Z,21.33
2018-11-28T14:58:31.613Z,22.80
2018-11-28T15:00:35.501Z,21.63
2018-11-28T15:02:39.398Z,20.57
2018-11-28T15:04:43.330Z,20.07
2018-11-28T15:06:52.543Z,18.50
2018-11-28T15:09:01.698Z,22.00
2018-11-28T15:11:12.759Z,22.33
2018-11-28T15:13:17.539Z,18.23
2018-11-28T15:15:21.363Z,17.23
2018-11-28T15:17:25.185Z,21.20
2018-11-28T15:19:28.933Z,24.13
2018-11-28T15:21:32.692Z,32.70
2018-11-28T15:23:36.738Z,17.47
2018-11-28T15:25:40.512Z,20.77
2018-11-28T15:27:44.440Z,19.23
2018-11-28T15:29:48.328Z,20.77
2018-11-28T15:31:52.227Z,25.37
2018-11-28T15:33:56.105Z,25.73
2018-11-28T15:36:00.041Z,23.90
2018-11-28T15:38:03.790Z,22.67
2018-11-28T15:40:08.171Z,21.90
2018-11-28T15:42:11.922Z,20.87
2018-11-28T15:44:15.716Z,19.90
2018-11-28T15:46:19.495Z,20.17
2018-11-28T15:48:23.347Z,22.90
2018-11-28T15:50:27.123Z,23.40
2018-11-28T15:52:30.906Z,26.40
2018-11-28T15:54:34.708Z,23.03
2018-11-28T15:56:38.504Z,28.60
2018-11-28T15:58:42.333Z,21.60
2018-11-28T16:00:46.112Z,22.40
2018-11-28T16:02:49.929Z,24.43
2018-11-28T16:04:53.698Z,21.67
2018-11-28T16:06:57.515Z,21.50
2018-11-28T16:09:01.349Z,18.43
2018-11-28T16:11:09.727Z,18.37
2018-11-28T16:13:15.019Z,20.87
2018-11-28T16:15:26.869Z,19.97
2018-11-28T16:17:30.646Z,19.00
2018-11-28T16:19:34.422Z,23.10
2018-11-28T16:21:38.236Z,16.70
2018-11-28T16:23:42.121Z,18.20
2018-11-28T16:25:45.854Z,18.03
2018-11-28T16:27:49.664Z,18.30
2018-11-28T16:29:53.423Z,18.80
2018-11-28T16:31:57.179Z,17.10
2018-11-28T16:34:00.951Z,19.87
2018-11-28T16:36:04.809Z,19.43
2018-11-28T16:38:08.823Z,18.10
2018-11-28T16:40:15.458Z,20.80
2018-11-28T16:42:19.213Z,26.70
2018-11-28T16:44:23.006Z,24.00
2018-11-28T16:46:27.297Z,18.03
2018-11-28T16:48:31.088Z,18.27
2018-11-28T16:50:34.854Z,18.77
2018-11-28T16:52:38.765Z,20.60
2018-11-28T16:54:42.506Z,20.20
2018-11-28T16:56:46.237Z,21.90
2018-11-28T16:58:50.039Z,17.93
2018-11-28T17:00:53.830Z,19.20
2018-11-28T17:02:57.887Z,18.30
2018-11-28T17:05:01.584Z,19.73
2018-11-28T17:07:05.390Z,20.90
2018-11-28T17:09:09.952Z,22.60
2018-11-28T17:11:14.260Z,24.73
2018-11-28T17:13:18.019Z,17.77
2018-11-28T17:15:21.819Z,23.07
2018-11-28T17:17:25.583Z,25.20
2018-11-28T17:19:29.443Z,20.13
2018-11-28T17:21:33.178Z,17.17
2018-11-28T17:23:36.938Z,18.23
2018-11-28T17:25:40.832Z,17.53
2018-11-28T17:27:44.570Z,15.23
2018-11-28T17:29:48.351Z,17.70
2018-11-28T17:31:52.083Z,19.63
2018-11-28T17:33:55.878Z,21.87
2018-11-28T17:35:59.630Z,15.10
2018-11-28T17:38:03.465Z,15.97
2018-11-28T17:40:13.429Z,17.57
2018-11-28T17:42:17.173Z,20.53
2018-11-28T17:44:21.013Z,23.30
2018-11-28T17:46:24.850Z,24.43
2018-11-28T17:48:28.651Z,28.10
2018-11-28T17:50:32.364Z,17.93
2018-11-28T17:52:36.454Z,20.03
2018-11-28T17:54:40.483Z,21.93
2018-11-28T17:56:44.290Z,17.30
2018-11-28T17:58:48.157Z,19.63
2018-11-28T18:00:52.163Z,18.93
2018-11-28T18:02:55.949Z,22.87
2018-11-28T18:04:59.790Z,19.30
2018-11-28T18:07:03.709Z,19.10
2018-11-28T18:09:11.676Z,20.83
2018-11-28T18:11:16.151Z,19.37
2018-11-28T18:13:20.275Z,16.60
2018-11-28T18:15:24.174Z,17.30
2018-11-28T18:17:27.981Z,18.73
2018-11-28T18:19:31.799Z,22.43
2018-11-28T18:21:35.621Z,20.40
2018-11-28T18:23:39.407Z,19.63
2018-11-28T18:25:44.034Z,16.50
2018-11-28T18:27:47.822Z,18.37
2018-11-28T18:29:52.032Z,21.13
2018-11-28T18:31:55.858Z,21.50
2018-11-28T18:33:59.670Z,18.77
2018-11-28T18:36:03.482Z,21.63
2018-11-28T18:38:07.391Z,18.23
2018-11-28T18:40:13.057Z,16.90
2018-11-28T18:42:16.807Z,20.60
2018-11-28T18:44:20.610Z,20.70
2018-11-28T18:46:24.391Z,21.67
2018-11-28T18:48:28.314Z,22.47
2018-11-28T18:50:32.117Z,18.30
2018-11-28T18:52:35.874Z,20.67
2018-11-28T18:54:39.731Z,22.93
2018-11-28T18:56:43.528Z,22.77
2018-11-28T18:58:48.559Z,21.93
2018-11-28T19:00:52.976Z,24.50
2018-11-28T19:02:57.645Z,20.70
2018-11-28T19:05:01.997Z,23.03
2018-11-28T19:07:06.519Z,24.73
2018-11-28T19:09:14.896Z,23.50
2018-11-28T19:11:18.690Z,20.83
2018-11-28T19:13:22.471Z,19.27
2018-11-28T19:15:27.611Z,23.43
2018-11-28T19:17:31.346Z,18.70
2018-11-28T19:19:35.171Z,20.87
2018-11-28T19:21:38.964Z,23.23
2018-11-28T19:23:43.289Z,24.03
2018-11-28T19:25:50.108Z,19.00
2018-11-28T19:27:53.480Z,24.80
2018-11-28T19:29:57.547Z,26.70
2018-11-28T19:32:01.324Z,26.17
2018-11-28T19:34:05.110Z,24.50
2018-11-28T19:36:09.162Z,20.00
2018-11-28T19:38:14.700Z,20.80
2018-11-28T19:40:20.469Z,26.10
2018-11-28T19:42:24.326Z,20.50
2018-11-28T19:44:28.453Z,23.50
2018-11-28T19:46:32.231Z,23.23
2018-11-28T19:48:36.236Z,21.57
2018-11-28T19:50:40.046Z,25.70
2018-11-28T19:52:43.812Z,26.00
2018-11-28T19:54:47.721Z,36.43
2018-11-28T19:56:53.790Z,34.23
2018-11-28T19:58:57.615Z,37.03
2018-11-28T20:01:01.466Z,28.40
2018-11-28T20:03:05.332Z,30.20
2018-11-28T20:05:09.213Z,28.80
2018-11-28T20:07:13.058Z,28.40
2018-11-28T20:09:19.965Z,34.27
2018-11-28T20:11:23.759Z,29.73
2018-11-28T20:13:27.626Z,31.03
2018-11-28T20:15:32.479Z,31.77
2018-11-28T20:17:36.214Z,32.27
2018-11-28T20:19:40.062Z,32.33
2018-11-28T20:21:43.884Z,28.60
2018-11-28T20:23:47.639Z,35.13
2018-11-28T20:25:51.516Z,33.47
2018-11-28T20:27:56.694Z,27.57
2018-11-28T20:30:00.458Z,28.70
2018-11-28T20:32:04.219Z,29.30
2018-11-28T20:34:08.034Z,37.73
2018-11-28T20:36:11.896Z,24.93
2018-11-28T20:38:22.099Z,30.37
2018-11-28T20:40:25.915Z,26.70
2018-11-28T20:42:29.659Z,26.17
2018-11-28T20:44:33.382Z,24.90
2018-11-28T20:46:37.227Z,26.30
2018-11-28T20:48:41.034Z,23.50
2018-11-28T20:50:44.840Z,28.03
2018-11-28T20:52:54.899Z,29.97
2018-11-28T20:54:54.140Z,28.00
2018-11-28T20:56:57.885Z,29.20
2018-11-28T20:59:01.684Z,25.57
2018-11-28T21:01:05.682Z,23.23
2018-11-28T21:03:09.422Z,31.30
2018-11-28T21:05:13.235Z,36.00
2018-11-28T21:07:17.107Z,33.57
2018-11-28T21:09:20.902Z,30.67
2018-11-28T21:11:24.694Z,32.47
2018-11-28T21:13:28.922Z,33.70
2018-11-28T21:15:32.773Z,37.77
2018-11-28T21:17:36.552Z,29.43
2018-11-28T21:19:41.296Z,29.87
2018-11-28T21:21:45.069Z,35.03
2018-11-28T21:23:48.865Z,30.30
2018-11-28T21:25:52.664Z,33.00
2018-11-28T21:27:56.540Z,25.90
2018-11-28T21:30:00.356Z,27.10
2018-11-28T21:32:04.166Z,25.97
2018-11-28T21:34:08.754Z,27.80
2018-11-28T21:36:13.052Z,38.40
2018-11-28T21:38:16.795Z,25.60
2018-11-28T21:40:20.502Z,31.87
2018-11-28T21:42:24.482Z,36.17
2018-11-28T21:44:28.238Z,29.53
2018-11-28T21:46:32.210Z,28.40
2018-11-28T21:48:36.139Z,30.07
2018-11-28T21:50:39.957Z,29.07
2018-11-28T21:52:43.808Z,24.93
2018-11-28T21:54:47.614Z,27.50
2018-11-28T21:56:51.469Z,27.60
2018-11-28T21:58:55.245Z,27.10
2018-11-28T22:00:59.016Z,25.73
2018-11-28T22:03:02.797Z,27.20
2018-11-28T22:05:07.730Z,30.57
2018-11-28T22:07:11.589Z,26.27
2018-11-28T22:09:15.296Z,29.33
2018-11-28T22:11:19.075Z,28.93
2018-11-28T22:13:22.793Z,29.30
2018-11-28T22:15:26.545Z,29.70
2018-11-28T22:17:30.394Z,31.33
2018-11-28T22:19:34.199Z,33.53
2018-11-28T22:21:38.069Z,33.10
2018-11-28T22:23:41.847Z,29.33
2018-11-28T22:25:45.607Z,33.60
2018-11-28T22:27:49.418Z,39.93
2018-11-28T22:29:53.144Z,31.60
2018-11-28T22:31:56.966Z,32.07
2018-11-28T22:34:00.772Z,28.33
2018-11-28T22:36:04.538Z,28.57
2018-11-28T22:38:08.332Z,30.60
2018-11-28T22:40:14.390Z,30.33
2018-11-28T22:42:18.233Z,28.60
2018-11-28T22:44:22.046Z,28.17
2018-11-28T22:46:25.817Z,32.07
2018-11-28T22:48:29.567Z,26.20
2018-11-28T22:50:33.292Z,30.00
2018-11-28T22:52:37.017Z,27.90
2018-11-28T22:54:40.738Z,29.87
2018-11-28T22:56:44.464Z,33.53
2018-11-28T22:58:48.224Z,32.50
2018-11-28T23:00:57.343Z,28.70
2018-11-28T23:03:03.855Z,29.63
2018-11-28T23:05:07.637Z,26.70
2018-11-28T23:07:11.399Z,32.80
2018-11-28T23:09:15.158Z,27.60
2018-11-28T23:11:19.687Z,27.27
2018-11-28T23:13:25.383Z,28.83
2018-11-28T23:15:29.165Z,29.27
2018-11-28T23:17:32.949Z,24.83
2018-11-28T23:19:36.707Z,27.87
2018-11-28T23:21:40.455Z,31.37
2018-11-28T23:23:44.253Z,32.50
2018-11-28T23:25:47.973Z,29.50
2018-11-28T23:27:51.751Z,24.00
2018-11-28T23:29:55.530Z,27.60
2018-11-28T23:31:59.218Z,29.23
2018-11-28T23:34:03.386Z,26.83
2018-11-28T23:36:07.154Z,24.50
2018-11-28T23:38:10.877Z,28.70
2018-11-28T23:40:17.869Z,31.77
2018-11-28T23:42:21.695Z,26.53
2018-11-28T23:44:25.584Z,28.27
2018-11-28T23:46:29.366Z,25.50
2018-11-28T23:48:33.159Z,25.97
2018-11-28T23:50:37.040Z,27.30
2018-11-28T23:52:40.801Z,30.07
2018-11-28T23:54:44.577Z,27.03
2018-11-28T23:56:48.285Z,28.07
2018-11-28T23:58:52.038Z,31.50
